createdAt,value
2022-09-20T00:00:48.483Z,0.90
2022-09-20T00:03:17.361Z,0.90
2022-09-20T00:05:46.155Z,1.48
2022-09-20T00:08:16.106Z,1.55
2022-09-20T00:10:43.575Z,1.67
2022-09-20T00:13:12.754Z,1.50
2022-09-20T00:15:44.635Z,1.40
2022-09-20T00:18:12.525Z,0.88
2022-09-20T00:20:49.534Z,2.13
2022-09-20T00:23:17.085Z,2.15
2022-09-20T00:25:44.314Z,1.20
2022-09-20T00:28:11.451Z,1.00
2022-09-20T00:30:38.876Z,1.83
2022-09-20T00:33:05.752Z,2.00
2022-09-20T00:35:32.996Z,1.83
2022-09-20T00:37:59.705Z,1.83
2022-09-20T00:40:30.270Z,1.95
2022-09-20T00:42:57.060Z,0.95
2022-09-20T00:45:26.562Z,0.90
2022-09-20T00:47:59.132Z,1.15
2022-09-20T00:50:45.650Z,0.60
2022-09-20T00:53:34.061Z,1.02
2022-09-20T00:56:20.456Z,1.90
2022-09-20T00:59:01.615Z,1.45
2022-09-20T01:01:28.569Z,0.65
2022-09-20T01:03:55.540Z,0.75
2022-09-20T01:06:22.299Z,1.92
2022-09-20T01:08:53.648Z,1.60
2022-09-20T01:11:20.438Z,2.25
2022-09-20T01:13:47.145Z,1.25
2022-09-20T01:16:16.042Z,1.42
2022-09-20T01:18:44.790Z,1.25
2022-09-20T01:21:12.271Z,1.67
2022-09-20T01:23:41.963Z,1.17
2022-09-20T01:26:14.232Z,1.55
2022-09-20T01:28:43.906Z,0.68
2022-09-20T01:31:29.687Z,1.15
2022-09-20T01:34:11.360Z,1.08
2022-09-20T01:36:59.599Z,1.10
2022-09-20T01:39:38.230Z,1.20
2022-09-20T01:42:10.598Z,0.93
2022-09-20T01:47:52.017Z,1.40
2022-09-20T01:50:35.328Z,0.65
2022-09-20T01:53:04.781Z,2.80
2022-09-20T01:55:59.582Z,0.77
2022-09-20T01:58:41.235Z,2.03
2022-09-20T02:01:38.834Z,1.15
2022-09-20T02:04:35.098Z,1.25
2022-09-20T02:07:26.632Z,1.70
2022-09-20T02:10:14.653Z,1.40
2022-09-20T02:13:08.285Z,1.17
2022-09-20T02:15:46.728Z,2.08
2022-09-20T02:18:38.517Z,1.40
2022-09-20T02:21:29.121Z,1.05
2022-09-20T02:24:10.969Z,1.17
2022-09-20T02:26:50.904Z,0.75
2022-09-20T02:29:20.592Z,1.42
2022-09-20T02:32:13.566Z,1.80
2022-09-20T02:34:43.415Z,1.52
2022-09-20T02:37:28.232Z,1.42
2022-09-20T02:40:10.049Z,1.13
2022-09-20T02:42:51.591Z,0.73
2022-09-20T02:45:36.467Z,1.92
2022-09-20T02:48:06.659Z,0.95
2022-09-20T02:50:47.215Z,1.20
2022-09-20T02:53:23.112Z,1.15
2022-09-20T02:56:17.490Z,1.30
2022-09-20T02:59:05.615Z,1.58
2022-09-20T03:01:54.656Z,1.70
2022-09-20T03:04:37.332Z,2.25
2022-09-20T03:12:47.200Z,0.90
2022-09-20T03:15:26.862Z,1.17
2022-09-20T03:18:06.272Z,1.67
2022-09-20T03:20:51.494Z,1.02
2022-09-20T03:23:55.533Z,1.30
2022-09-20T03:26:44.042Z,1.00
2022-09-20T03:29:28.789Z,1.95
2022-09-20T03:32:13.820Z,0.82
2022-09-20T03:35:08.167Z,1.02
2022-09-20T03:38:01.781Z,0.68
2022-09-20T03:40:59.355Z,0.75
2022-09-20T03:43:33.270Z,0.95
2022-09-20T03:46:22.522Z,0.80
2022-09-20T03:48:58.260Z,0.63
2022-09-20T03:51:46.349Z,3.58
2022-09-20T03:54:53.915Z,0.80
2022-09-20T03:57:29.544Z,1.25
2022-09-20T04:00:04.044Z,1.55
2022-09-20T04:02:50.045Z,0.95
2022-09-20T04:05:27.094Z,1.08
2022-09-20T04:07:56.864Z,1.30
2022-09-20T04:10:44.522Z,0.60
2022-09-20T04:13:30.158Z,0.68
2022-09-20T04:16:15.721Z,0.82
2022-09-20T04:18:49.078Z,0.90
2022-09-20T04:21:46.448Z,0.55
2022-09-20T04:24:28.205Z,0.95
2022-09-20T04:27:15.266Z,1.47
2022-09-20T04:30:04.200Z,1.83
2022-09-20T04:33:11.958Z,1.33
2022-09-20T04:36:24.597Z,0.50
2022-09-20T04:39:16.454Z,1.13
2022-09-20T04:42:05.341Z,1.10
2022-09-20T04:45:07.920Z,1.38
2022-09-20T04:47:56.487Z,1.63
2022-09-20T04:50:52.110Z,1.80
2022-09-20T04:53:43.250Z,1.58
2022-09-20T04:56:51.150Z,1.02
2022-09-20T04:59:46.165Z,2.22
2022-09-20T05:02:30.731Z,0.88
2022-09-20T05:05:41.695Z,1.13
2022-09-20T05:08:32.410Z,2.08
2022-09-20T05:11:06.534Z,0.85
2022-09-20T05:13:48.323Z,0.70
2022-09-20T05:16:48.586Z,0.60
2022-09-20T05:19:31.856Z,0.98
2022-09-20T05:22:10.553Z,2.75
2022-09-20T05:24:49.541Z,1.23
2022-09-20T05:27:19.687Z,0.90
2022-09-20T05:30:23.003Z,1.98
2022-09-20T05:32:52.817Z,1.93
2022-09-20T05:35:43.154Z,0.93
2022-09-20T05:38:24.641Z,0.93
2022-09-20T05:41:04.789Z,0.93
2022-09-20T05:43:53.252Z,2.10
2022-09-20T05:46:38.726Z,1.40
2022-09-20T05:49:34.519Z,2.95
2022-09-20T05:52:34.701Z,1.17
2022-09-20T05:55:23.492Z,1.23
2022-09-20T05:58:28.252Z,1.48
2022-09-20T06:01:09.599Z,1.48
2022-09-20T06:03:54.458Z,2.40
2022-09-20T06:06:56.374Z,1.05
2022-09-20T06:09:29.898Z,4.93
2022-09-20T06:12:17.856Z,5.00
2022-09-20T06:15:11.707Z,3.83
2022-09-20T06:17:49.466Z,5.40
2022-09-20T06:20:21.999Z,6.25
2022-09-20T06:25:42.861Z,5.38
2022-09-20T06:28:19.367Z,5.15
2022-09-20T06:30:51.728Z,5.13
2022-09-20T06:33:24.762Z,6.80
2022-09-20T06:36:35.091Z,6.05
2022-09-20T06:39:25.693Z,4.70
2022-09-20T06:41:52.803Z,4.65
2022-09-20T06:44:19.527Z,4.18
2022-09-20T06:46:46.287Z,6.20
2022-09-20T06:49:13.021Z,5.47
2022-09-20T06:51:40.108Z,3.10
2022-09-20T06:54:11.292Z,6.38
2022-09-20T06:56:38.403Z,5.63
2022-09-20T06:59:10.313Z,5.85
2022-09-20T07:01:37.555Z,3.47
2022-09-20T07:04:06.110Z,6.60
2022-09-20T07:06:33.630Z,6.85
2022-09-20T07:09:00.380Z,8.15
2022-09-20T07:11:27.845Z,9.40
2022-09-20T07:13:58.049Z,5.35
2022-09-20T07:16:26.437Z,6.97
2022-09-20T07:18:53.604Z,2.88
2022-09-20T07:21:21.654Z,11.50
2022-09-20T07:23:51.406Z,4.18
2022-09-20T07:26:30.188Z,4.60
2022-09-20T07:28:57.915Z,3.60
2022-09-20T07:31:26.525Z,7.07
2022-09-20T07:33:53.430Z,4.22
2022-09-20T07:36:20.528Z,5.28
2022-09-20T07:38:50.367Z,4.50
2022-09-20T07:41:22.885Z,3.63
2022-09-20T07:43:50.819Z,6.13
2022-09-20T07:46:19.240Z,3.90
2022-09-20T07:48:45.985Z,3.00
2022-09-20T07:51:13.754Z,6.10
2022-09-20T07:53:41.104Z,2.42
2022-09-20T07:56:15.158Z,6.57
2022-09-20T07:58:43.074Z,10.60
2022-09-20T08:01:12.584Z,5.60
2022-09-20T08:03:39.616Z,7.07
2022-09-20T08:06:09.204Z,6.38
2022-09-20T08:08:37.927Z,5.18
2022-09-20T08:11:17.061Z,4.93
2022-09-20T08:16:39.267Z,6.93
2022-09-20T08:19:06.009Z,7.95
2022-09-20T08:21:35.875Z,5.05
2022-09-20T08:24:04.009Z,4.18
2022-09-20T08:26:31.679Z,4.68
2022-09-20T08:29:00.216Z,8.23
2022-09-20T08:31:36.888Z,4.63
2022-09-20T08:34:06.532Z,3.72
2022-09-20T08:36:36.828Z,4.75
2022-09-20T08:41:56.889Z,3.80
2022-09-20T08:44:29.680Z,5.47
2022-09-20T08:47:00.220Z,4.50
2022-09-20T08:49:29.117Z,4.32
2022-09-20T08:51:58.232Z,5.70
2022-09-20T08:54:32.307Z,4.03
2022-09-20T08:57:10.817Z,6.63
2022-09-20T08:59:37.604Z,11.55
2022-09-20T09:02:16.420Z,5.15
2022-09-20T09:04:45.412Z,5.30
2022-09-20T09:07:19.643Z,3.15
2022-09-20T09:09:47.719Z,2.70
2022-09-20T09:12:30.682Z,7.07
2022-09-20T09:15:05.909Z,5.13
2022-09-20T09:17:32.599Z,7.95
2022-09-20T09:20:15.292Z,6.72
2022-09-20T09:22:46.231Z,8.32
2022-09-20T09:25:18.450Z,4.28
2022-09-20T09:28:00.789Z,5.75
2022-09-20T09:30:27.527Z,5.68
2022-09-20T09:33:20.017Z,5.60
2022-09-20T09:35:57.154Z,4.47
2022-09-20T09:38:29.755Z,5.35
2022-09-20T09:40:59.634Z,3.80
2022-09-20T09:43:30.072Z,4.45
2022-09-20T09:46:21.493Z,5.90
2022-09-20T09:49:06.734Z,5.72
2022-09-20T09:51:36.733Z,3.50
2022-09-20T09:54:05.189Z,4.07
2022-09-20T09:56:58.072Z,4.60
2022-09-20T10:00:03.130Z,4.05
2022-09-20T10:03:26.081Z,2.78
2022-09-20T10:06:23.036Z,3.53
2022-09-20T10:09:04.876Z,5.07
2022-09-20T10:12:02.504Z,7.05
2022-09-20T10:14:47.206Z,3.40
2022-09-20T10:17:52.422Z,3.78
2022-09-20T10:20:21.819Z,3.15
2022-09-20T10:23:26.804Z,2.97
2022-09-20T10:25:53.787Z,5.80
2022-09-20T10:28:28.682Z,7.03
2022-09-20T10:31:03.667Z,3.85
2022-09-20T10:34:00.240Z,3.70
2022-09-20T10:36:47.274Z,5.25
2022-09-20T10:39:25.329Z,2.05
2022-09-20T10:42:45.784Z,4.30
2022-09-20T10:45:50.865Z,3.60
2022-09-20T10:48:31.030Z,2.67
2022-09-20T10:51:06.836Z,3.92
2022-09-20T10:53:52.056Z,4.13
2022-09-20T10:56:33.574Z,3.03
2022-09-20T10:59:30.858Z,3.13
2022-09-20T11:02:13.814Z,3.75
2022-09-20T11:05:02.019Z,4.55
2022-09-20T11:07:34.444Z,2.97
2022-09-20T11:13:01.098Z,4.63
2022-09-20T11:15:39.614Z,2.78
2022-09-20T11:18:13.233Z,6.13
2022-09-20T11:20:47.604Z,4.00
2022-09-20T11:23:21.442Z,4.32
2022-09-20T11:26:04.615Z,3.50
2022-09-20T11:28:37.473Z,1.98
2022-09-20T11:31:26.778Z,5.18
2022-09-20T11:34:12.875Z,3.30
2022-09-20T11:36:44.442Z,3.30
2022-09-20T11:39:39.563Z,5.27
2022-09-20T11:42:12.629Z,3.10
2022-09-20T11:44:41.215Z,1.73
2022-09-20T11:47:36.622Z,4.65
2022-09-20T11:50:35.363Z,2.85
2022-09-20T11:53:32.161Z,3.80
2022-09-20T11:56:11.122Z,11.02
2022-09-20T11:59:05.793Z,2.78
2022-09-20T12:01:42.657Z,2.08
2022-09-20T12:04:38.618Z,4.05
2022-09-20T12:07:18.096Z,3.08
2022-09-20T12:09:59.096Z,3.28
2022-09-20T12:12:34.925Z,3.00
2022-09-20T12:15:06.029Z,2.45
2022-09-20T12:17:48.100Z,3.10
2022-09-20T12:20:32.803Z,2.92
2022-09-20T12:23:37.075Z,2.30
2022-09-20T12:26:32.623Z,1.80
2022-09-20T12:29:20.527Z,4.05
2022-09-20T12:31:52.425Z,1.92
2022-09-20T12:34:19.094Z,4.78
2022-09-20T12:37:10.249Z,4.90
2022-09-20T12:39:39.411Z,3.50
2022-09-20T12:42:28.224Z,2.15
2022-09-20T12:45:26.416Z,3.03
2022-09-20T12:47:55.828Z,1.63
2022-09-20T12:50:42.098Z,3.45
2022-09-20T12:53:16.657Z,2.67
2022-09-20T12:56:02.003Z,2.80
2022-09-20T12:58:39.690Z,3.22
2022-09-20T13:01:08.520Z,6.15
2022-09-20T13:06:11.951Z,2.20
2022-09-20T13:08:49.437Z,1.75
2022-09-20T13:11:18.671Z,2.25
2022-09-20T13:13:55.768Z,2.13
2022-09-20T13:16:24.366Z,3.42
2022-09-20T13:19:28.682Z,1.73
2022-09-20T13:22:04.501Z,2.50
2022-09-20T13:24:37.487Z,9.30
2022-09-20T13:27:34.839Z,3.35
2022-09-20T13:30:22.579Z,2.30
2022-09-20T13:32:51.377Z,2.28
2022-09-20T13:35:21.481Z,3.85
2022-09-20T13:37:57.173Z,1.45
2022-09-20T13:40:40.335Z,2.35
2022-09-20T13:43:43.711Z,1.50
2022-09-20T13:46:12.178Z,3.33
2022-09-20T13:48:39.256Z,3.33
2022-09-20T13:51:19.560Z,3.10
2022-09-20T13:53:49.566Z,2.97
2022-09-20T13:56:37.928Z,2.40
2022-09-20T13:59:18.473Z,2.85
2022-09-20T14:01:51.575Z,3.03
2022-09-20T14:04:22.096Z,3.40
2022-09-20T14:06:50.520Z,2.35
2022-09-20T14:09:39.197Z,2.35
2022-09-20T14:12:07.082Z,6.60
2022-09-20T14:14:34.911Z,2.42
2022-09-20T14:17:06.061Z,5.45
2022-09-20T14:19:38.833Z,3.92
2022-09-20T14:22:06.963Z,2.30
2022-09-20T14:24:37.233Z,3.13
2022-09-20T14:27:22.479Z,2.35
2022-09-20T14:29:53.624Z,4.70
2022-09-20T14:32:20.664Z,4.15
2022-09-20T14:34:56.523Z,2.40
2022-09-20T14:37:28.097Z,4.63
2022-09-20T14:39:57.572Z,3.17
2022-09-20T14:42:30.382Z,2.88
2022-09-20T14:44:57.927Z,3.25
2022-09-20T14:47:38.724Z,2.58
2022-09-20T14:50:34.585Z,2.38
2022-09-20T14:53:10.853Z,3.85
2022-09-20T14:55:39.114Z,2.65
2022-09-20T14:58:15.210Z,2.05
2022-09-20T15:00:57.834Z,2.10
2022-09-20T15:03:31.042Z,1.85
2022-09-20T15:05:58.169Z,1.73
2022-09-20T15:08:25.575Z,2.38
2022-09-20T15:10:52.553Z,3.75
2022-09-20T15:13:19.366Z,2.75
2022-09-20T15:15:50.764Z,2.60
2022-09-20T15:18:22.363Z,3.97
2022-09-20T15:20:53.315Z,1.48
2022-09-20T15:23:20.422Z,2.45
2022-09-20T15:25:51.409Z,8.90
2022-09-20T15:28:18.880Z,2.97
2022-09-20T15:30:47.313Z,1.88
2022-09-20T15:33:14.758Z,2.03
2022-09-20T15:35:43.171Z,1.40
2022-09-20T15:38:11.846Z,2.17
2022-09-20T15:40:43.066Z,2.33
2022-09-20T15:43:14.648Z,2.80
2022-09-20T15:45:52.292Z,1.95
2022-09-20T15:48:21.402Z,1.60
2022-09-20T15:51:04.170Z,1.88
2022-09-20T15:53:33.424Z,1.42
2022-09-20T15:56:02.573Z,2.70
2022-09-20T15:58:36.298Z,3.38
2022-09-20T16:01:05.662Z,2.40
2022-09-20T16:03:32.989Z,2.28
2022-09-20T16:06:04.274Z,2.55
2022-09-20T16:08:33.530Z,3.55
2022-09-20T16:11:00.666Z,3.80
2022-09-20T16:13:27.865Z,1.48
2022-09-20T16:15:58.480Z,2.22
2022-09-20T16:18:44.155Z,2.15
2022-09-20T16:21:12.624Z,3.05
2022-09-20T16:23:40.841Z,4.63
2022-09-20T16:26:12.720Z,3.10
2022-09-20T16:28:45.196Z,1.73
2022-09-20T16:31:42.632Z,2.42
2022-09-20T16:34:21.302Z,2.42
2022-09-20T16:36:49.033Z,3.15
2022-09-20T16:39:17.443Z,1.15
2022-09-20T16:41:46.846Z,1.38
2022-09-20T16:44:14.195Z,3.50
2022-09-20T16:46:41.559Z,2.05
2022-09-20T16:49:11.593Z,2.28
2022-09-20T16:51:40.224Z,2.97
2022-09-20T16:54:12.698Z,1.88
2022-09-20T16:56:44.506Z,4.03
2022-09-20T16:59:12.787Z,2.72
2022-09-20T17:01:40.426Z,1.67
2022-09-20T17:04:08.347Z,1.35
2022-09-20T17:06:37.710Z,1.00
2022-09-20T17:09:06.413Z,3.15
2022-09-20T17:11:38.482Z,2.33
2022-09-20T17:14:05.707Z,1.60
2022-09-20T17:16:38.010Z,2.42
2022-09-20T17:19:11.200Z,2.50
2022-09-20T17:21:40.191Z,2.80
2022-09-20T17:24:07.520Z,1.83
2022-09-20T17:26:44.422Z,2.33
2022-09-20T17:29:17.351Z,3.55
2022-09-20T17:31:51.522Z,2.45
2022-09-20T17:34:21.531Z,1.05
2022-09-20T17:36:49.033Z,1.50
2022-09-20T17:39:16.498Z,2.95
2022-09-20T17:41:46.124Z,2.08
2022-09-20T17:44:13.469Z,1.45
2022-09-20T17:46:41.832Z,1.05
2022-09-20T17:49:14.006Z,2.90
2022-09-20T17:51:42.247Z,2.97
2022-09-20T17:54:13.525Z,0.85
2022-09-20T17:56:48.790Z,3.40
2022-09-20T17:59:16.819Z,2.20
2022-09-20T18:01:46.196Z,1.63
2022-09-20T18:04:13.498Z,1.40
2022-09-20T18:06:48.694Z,1.52
2022-09-20T18:09:19.703Z,2.08
2022-09-20T18:11:50.070Z,2.08
2022-09-20T18:14:28.347Z,1.92
2022-09-20T18:16:58.053Z,3.97
2022-09-20T18:19:32.213Z,2.00
2022-09-20T18:21:59.371Z,2.75
2022-09-20T18:24:26.543Z,1.15
2022-09-20T18:26:53.427Z,1.70
2022-09-20T18:29:20.321Z,1.17
2022-09-20T18:31:48.686Z,1.75
2022-09-20T18:34:20.338Z,2.53
2022-09-20T18:36:53.014Z,3.17
2022-09-20T18:39:25.003Z,1.15
2022-09-20T18:41:53.055Z,2.15
2022-09-20T18:44:21.194Z,2.13
2022-09-20T18:46:48.733Z,1.40
2022-09-20T18:49:16.898Z,1.48
2022-09-20T18:51:44.383Z,1.35
2022-09-20T18:54:12.060Z,1.38
2022-09-20T18:56:43.752Z,2.17
2022-09-20T18:59:18.220Z,1.58
2022-09-20T19:01:52.562Z,1.23
2022-09-20T19:04:40.899Z,2.47
2022-09-20T19:07:34.990Z,0.90
2022-09-20T19:10:06.643Z,1.38
2022-09-20T19:13:08.923Z,1.90
2022-09-20T19:16:10.093Z,0.93
2022-09-20T19:19:01.064Z,3.22
2022-09-20T19:21:50.465Z,1.50
2022-09-20T19:24:47.591Z,3.38
2022-09-20T19:27:14.987Z,2.22
2022-09-20T19:29:42.262Z,2.05
2022-09-20T19:32:21.646Z,1.63
2022-09-20T19:34:53.598Z,1.83
2022-09-20T19:37:20.575Z,2.80
2022-09-20T19:40:12.265Z,1.60
2022-09-20T19:43:03.199Z,2.72
2022-09-20T19:45:32.977Z,2.78
2022-09-20T19:48:18.130Z,0.68
2022-09-20T19:50:48.679Z,1.30
2022-09-20T19:53:22.239Z,1.35
2022-09-20T19:56:05.937Z,1.20
2022-09-20T19:58:32.988Z,1.13
2022-09-20T20:01:00.043Z,1.58
2022-09-20T20:03:28.646Z,1.67
2022-09-20T20:06:24.903Z,1.48
2022-09-20T20:09:28.506Z,1.38
2022-09-20T20:12:23.790Z,1.30
2022-09-20T20:14:58.892Z,1.25
2022-09-20T20:17:34.583Z,1.10
2022-09-20T20:20:26.387Z,1.23
2022-09-20T20:23:11.674Z,1.93
2022-09-20T20:26:02.982Z,1.25
2022-09-20T20:28:30.550Z,1.45
2022-09-20T20:31:02.185Z,0.82
2022-09-20T20:33:30.076Z,1.08
2022-09-20T20:35:58.793Z,1.55
2022-09-20T20:38:26.592Z,2.10
2022-09-20T20:41:04.720Z,1.50
2022-09-20T20:43:34.646Z,1.80
2022-09-20T20:46:01.748Z,1.70
2022-09-20T20:48:29.244Z,2.97
2022-09-20T20:51:22.241Z,1.45
2022-09-20T20:53:51.294Z,1.75
2022-09-20T20:56:25.666Z,0.73
2022-09-20T20:58:52.954Z,1.88
2022-09-20T21:01:25.310Z,2.08
2022-09-20T21:06:21.378Z,3.22
2022-09-20T21:08:49.731Z,1.38
2022-09-20T21:11:24.966Z,1.70
2022-09-20T21:13:57.131Z,1.17
2022-09-20T21:16:29.594Z,0.75
2022-09-20T21:18:57.194Z,2.17
2022-09-20T21:21:30.049Z,0.65
2022-09-20T21:24:07.941Z,2.08
2022-09-20T21:26:37.282Z,1.40
2022-09-20T21:29:07.051Z,1.02
2022-09-20T21:31:36.544Z,2.03
2022-09-20T21:34:07.899Z,2.47
2022-09-20T21:36:35.895Z,1.02
2022-09-20T21:39:03.440Z,1.98
2022-09-20T21:41:32.513Z,1.23
2022-09-20T21:44:00.921Z,1.38
2022-09-20T21:46:29.776Z,2.00
2022-09-20T21:49:03.956Z,1.08
2022-09-20T21:51:31.809Z,1.08
2022-09-20T21:54:01.352Z,4.10
2022-09-20T21:56:36.714Z,1.90
2022-09-20T21:59:06.021Z,1.08
2022-09-20T22:01:35.505Z,0.65
2022-09-20T22:04:08.063Z,1.30
2022-09-20T22:06:37.415Z,1.85
2022-09-20T22:09:07.594Z,2.05
2022-09-20T22:11:40.178Z,1.30
2022-09-20T22:14:08.107Z,1.42
2022-09-20T22:16:37.865Z,2.90
2022-09-20T22:19:05.769Z,1.92
2022-09-20T22:21:35.321Z,1.02
2022-09-20T22:24:04.738Z,1.88
2022-09-20T22:26:34.788Z,1.67
2022-09-20T22:29:02.435Z,1.15
2022-09-20T22:31:31.665Z,1.30
2022-09-20T22:34:00.551Z,1.40
2022-09-20T22:36:30.344Z,1.42
2022-09-20T22:38:57.302Z,1.75
2022-09-20T22:41:24.590Z,2.47
2022-09-20T22:43:51.929Z,1.58
2022-09-20T22:46:21.077Z,1.48
2022-09-20T22:48:48.486Z,1.50
2022-09-20T22:51:16.906Z,1.58
2022-09-20T22:53:44.700Z,2.30
2022-09-20T22:56:15.971Z,2.05
2022-09-20T22:58:48.569Z,1.75
2022-09-20T23:01:15.283Z,2.00
2022-09-20T23:03:44.836Z,1.48
2022-09-20T23:06:22.087Z,1.35
2022-09-20T23:08:49.955Z,3.90
2022-09-20T23:11:17.436Z,1.23
2022-09-20T23:13:45.419Z,1.83
2022-09-20T23:16:21.248Z,1.83
2022-09-20T23:18:49.350Z,1.02
2022-09-20T23:21:17.122Z,1.35
2022-09-20T23:23:45.179Z,1.63
2022-09-20T23:26:17.911Z,1.45
2022-09-20T23:28:51.767Z,1.40
2022-09-20T23:31:18.875Z,2.33
2022-09-20T23:33:56.626Z,0.63
2022-09-20T23:36:24.643Z,1.60
2022-09-20T23:38:51.789Z,1.58
2022-09-20T23:41:21.099Z,2.17
2022-09-20T23:43:48.324Z,1.95
2022-09-20T23:46:17.261Z,2.15
2022-09-20T23:48:44.720Z,3.13
2022-09-20T23:51:13.606Z,1.75
2022-09-20T23:53:40.968Z,1.25
2022-09-20T23:56:09.155Z,2.10
2022-09-20T23:58:37.278Z,1.35
